Time;durP1;ratioP1;P1;durP2;ratioP2;P2;SDS_P1;SDS_P2;PMS_P1;PMS_P2;Temp;Humidity;BMP_temperature;BMP_pressure;BME280_temperature;BME280_humidity;BME280_pressure;Samples;Min_cycle;Max_cycle;Signal;HPM_P1;HPM_P2
2022/05/06 00:02:11;;;;;;;44.30;23.52;;;;;;;;;;5080541;28;20036;-83
2022/05/06 00:04:37;;;;;;;47.58;24.02;;;;;;;;;;5093259;28;20399;-83
2022/05/06 00:07:03;;;;;;;41.30;21.15;;;;;;;;;;5071640;28;20048;-83
2022/05/06 00:09:30;;;;;;;38.30;20.52;;;;;;;;;;5070626;28;20495;-83
2022/05/06 00:11:56;;;;;;;37.28;20.83;;;;;;;;;;5050859;28;20070;-83
2022/05/06 00:14:22;;;;;;;37.42;20.48;;;;;;;;;;5078171;28;20039;-83
2022/05/06 00:16:48;;;;;;;41.55;22.30;;;;;;;;;;5065598;28;20066;-83
2022/05/06 00:19:14;;;;;;;44.00;22.15;;;;;;;;;;5077764;28;20036;-84
2022/05/06 00:21:40;;;;;;;48.28;25.15;;;;;;;;;;5068834;28;20456;-83
2022/05/06 00:24:06;;;;;;;50.15;24.75;;;;;;;;;;5067018;28;20037;-83
2022/05/06 00:26:32;;;;;;;47.05;24.40;;;;;;;;;;5086865;28;20104;-84
2022/05/06 00:28:58;;;;;;;47.75;25.92;;;;;;;;;;5055527;28;20036;-83
2022/05/06 00:31:24;;;;;;;47.30;22.00;;;;;;;;;;5050529;28;20047;-83
2022/05/06 00:33:51;;;;;;;40.83;21.75;;;;;;;;;;5067455;28;20043;-83
2022/05/06 00:36:17;;;;;;;45.97;23.67;;;;;;;;;;5065713;28;20038;-83
2022/05/06 00:38:43;;;;;;;44.90;24.20;;;;;;;;;;5071387;28;20037;-83
2022/05/06 00:41:09;;;;;;;38.58;21.75;;;;;;;;;;5084338;28;20408;-83
2022/05/06 00:43:40;;;;;;;44.88;22.55;;;;;;;;;;5053427;28;20047;-83
2022/05/06 00:46:06;;;;;;;37.03;20.02;;;;;;;;;;5051390;28;20480;-83
2022/05/06 00:48:32;;;;;;;41.75;21.30;;;;;;;;;;5068062;28;20047;-83
2022/05/06 00:51:00;;;;;;;38.85;20.27;;;;;;;;;;5066947;28;20051;-83
2022/05/06 00:53:26;;;;;;;43.08;22.10;;;;;;;;;;5069553;28;20040;-83
2022/05/06 00:55:52;;;;;;;42.53;22.83;;;;;;;;;;5073925;28;20043;-83
2022/05/06 00:58:19;;;;;;;43.30;21.92;;;;;;;;;;5068916;28;20047;-83
2022/05/06 01:00:45;;;;;;;45.47;24.75;;;;;;;;;;5070170;28;20036;-84
2022/05/06 01:03:12;;;;;;;43.17;23.30;;;;;;;;;;5068845;28;20123;-83
2022/05/06 01:05:39;;;;;;;48.00;24.30;;;;;;;;;;5074466;28;20522;-83
2022/05/06 01:08:05;;;;;;;57.78;29.33;;;;;;;;;;5092510;28;20131;-83
2022/05/06 01:10:31;;;;;;;56.65;27.75;;;;;;;;;;5075569;28;20032;-83
2022/05/06 01:12:57;;;;;;;54.17;26.55;;;;;;;;;;5053179;28;20048;-84
2022/05/06 01:15:25;;;;;;;59.35;28.42;;;;;;;;;;5087457;28;20403;-84
2022/05/06 01:17:51;;;;;;;53.88;27.48;;;;;;;;;;5067512;28;20036;-84
2022/05/06 01:20:18;;;;;;;52.50;27.20;;;;;;;;;;5073474;28;20036;-84
2022/05/06 01:22:54;;;;;;;44.97;23.27;;;;;;;;;;5050188;28;20153;-84
2022/05/06 01:25:21;;;;;;;48.80;26.23;;;;;;;;;;5079365;28;20048;-84
2022/05/06 01:27:47;;;;;;;53.03;26.50;;;;;;;;;;5077152;28;20036;-83
2022/05/06 01:30:24;;;;;;;48.80;25.75;;;;;;;;;;5087799;28;20090;-84
2022/05/06 01:32:51;;;;;;;52.58;26.00;;;;;;;;;;5069234;28;20500;-83
2022/05/06 01:35:20;;;;;;;44.40;23.80;;;;;;;;;;5071720;28;20111;-83
2022/05/06 01:37:48;;;;;;;45.95;22.80;;;;;;;;;;5074280;28;20403;-84
2022/05/06 01:40:15;;;;;;;40.58;20.52;;;;;;;;;;5084023;28;20396;-84
2022/05/06 01:42:41;;;;;;;37.92;19.95;;;;;;;;;;5071773;28;20572;-84
2022/05/06 01:45:10;;;;;;;41.00;19.13;;;;;;;;;;5076721;28;20044;-84
2022/05/06 01:47:38;;;;;;;45.25;22.70;;;;;;;;;;5073580;28;20043;-84
2022/05/06 01:50:05;;;;;;;50.92;25.90;;;;;;;;;;5054147;28;20047;-85
2022/05/06 01:52:31;;;;;;;44.92;24.60;;;;;;;;;;5073812;28;20499;-86
2022/05/06 01:54:57;;;;;;;44.63;22.98;;;;;;;;;;5079768;28;20064;-84
2022/05/06 01:57:23;;;;;;;44.95;22.40;;;;;;;;;;5070439;28;20048;-84
2022/05/06 01:59:49;;;;;;;48.38;23.50;;;;;;;;;;5067977;28;20496;-84
2022/05/06 02:02:16;;;;;;;50.40;24.88;;;;;;;;;;5070165;28;20033;-84
2022/05/06 02:07:26;;;;;;;47.42;25.20;;;;;;;;;;5106448;28;20047;-83
2022/05/06 02:09:52;;;;;;;45.65;23.77;;;;;;;;;;5081867;28;20076;-84
2022/05/06 02:12:18;;;;;;;50.08;24.67;;;;;;;;;;5075554;28;20040;-84
2022/05/06 02:14:44;;;;;;;56.75;26.50;;;;;;;;;;5070684;28;20438;-84
2022/05/06 02:17:11;;;;;;;64.35;29.63;;;;;;;;;;5074798;28;20044;-85
2022/05/06 02:19:37;;;;;;;59.88;28.45;;;;;;;;;;5078676;28;20143;-84
2022/05/06 02:22:03;;;;;;;58.25;27.73;;;;;;;;;;5078674;28;20491;-84
2022/05/06 02:24:29;;;;;;;60.88;27.05;;;;;;;;;;5085237;28;20094;-84
2022/05/06 02:26:55;;;;;;;66.30;28.23;;;;;;;;;;5077130;28;20047;-84
2022/05/06 02:29:21;;;;;;;222.13;38.05;;;;;;;;;;5072062;28;20036;-84
2022/05/06 02:34:32;;;;;;;415.15;44.17;;;;;;;;;;5088383;28;20045;-84
2022/05/06 02:36:58;;;;;;;533.83;48.78;;;;;;;;;;5080543;28;20513;-84
2022/05/06 02:39:25;;;;;;;308.92;46.33;;;;;;;;;;5089816;28;20040;-85
2022/05/06 02:41:51;;;;;;;257.15;41.90;;;;;;;;;;5076466;28;20491;-85
2022/05/06 02:44:18;;;;;;;363.70;44.08;;;;;;;;;;5074563;28;20050;-85
2022/05/06 02:46:44;;;;;;;369.92;39.88;;;;;;;;;;5085253;28;20032;-85
2022/05/06 02:49:10;;;;;;;451.63;43.28;;;;;;;;;;5089648;28;20039;-85
2022/05/06 02:51:36;;;;;;;409.00;39.17;;;;;;;;;;5071194;28;20040;-85
2022/05/06 02:54:02;;;;;;;333.45;37.67;;;;;;;;;;5052695;28;20259;-85
2022/05/06 02:56:29;;;;;;;250.52;36.50;;;;;;;;;;5068019;28;20089;-85
2022/05/06 02:58:55;;;;;;;314.20;39.75;;;;;;;;;;5074531;28;20057;-85
2022/05/06 03:01:21;;;;;;;226.90;38.28;;;;;;;;;;5083991;28;20498;-85
2022/05/06 03:03:47;;;;;;;166.45;39.10;;;;;;;;;;5068478;28;20033;-85
2022/05/06 03:06:13;;;;;;;81.20;34.95;;;;;;;;;;5072368;28;20036;-85
2022/05/06 03:08:39;;;;;;;92.97;35.72;;;;;;;;;;5084143;28;20044;-85
2022/05/06 03:11:05;;;;;;;137.23;37.60;;;;;;;;;;5071707;28;20099;-85
2022/05/06 03:13:31;;;;;;;174.30;37.22;;;;;;;;;;5061930;28;20102;-85
2022/05/06 03:15:57;;;;;;;148.93;38.00;;;;;;;;;;5078604;28;20048;-85
2022/05/06 03:18:23;;;;;;;165.20;38.03;;;;;;;;;;5090042;28;20043;-85
2022/05/06 03:20:49;;;;;;;155.77;38.20;;;;;;;;;;5048670;28;20039;-85
2022/05/06 03:23:16;;;;;;;124.65;39.13;;;;;;;;;;5057116;28;20492;-86
2022/05/06 03:25:42;;;;;;;98.90;38.13;;;;;;;;;;5077730;28;20380;-85
2022/05/06 03:28:08;;;;;;;112.35;38.60;;;;;;;;;;5074104;28;20082;-86
2022/05/06 03:30:52;;;;;;;134.68;40.70;;;;;;;;;;5089121;28;20062;-86
2022/05/06 03:33:18;;;;;;;128.73;39.85;;;;;;;;;;5079049;28;20036;-86
2022/05/06 03:35:45;;;;;;;152.95;41.72;;;;;;;;;;5074939;28;20114;-85
2022/05/06 03:38:11;;;;;;;185.73;41.85;;;;;;;;;;5081959;28;20118;-86
2022/05/06 03:40:37;;;;;;;148.20;40.40;;;;;;;;;;5088855;28;20036;-85
2022/05/06 03:43:04;;;;;;;152.40;39.15;;;;;;;;;;5086252;28;20055;-85
2022/05/06 03:45:30;;;;;;;204.90;40.38;;;;;;;;;;5068224;28;20411;-85
2022/05/06 03:47:58;;;;;;;191.15;39.88;;;;;;;;;;5076266;28;20487;-85
2022/05/06 03:53:09;;;;;;;120.32;37.55;;;;;;;;;;5098616;28;20040;-86
2022/05/06 03:55:35;;;;;;;232.00;40.42;;;;;;;;;;5060359;28;20087;-86
2022/05/06 03:58:01;;;;;;;130.95;38.08;;;;;;;;;;5080045;28;20476;-85
2022/05/06 04:00:27;;;;;;;228.57;39.72;;;;;;;;;;5075475;28;20388;-85
2022/05/06 04:02:53;;;;;;;262.67;41.42;;;;;;;;;;5062283;28;20549;-85
2022/05/06 04:05:20;;;;;;;147.23;38.35;;;;;;;;;;5067119;28;20040;-85
2022/05/06 04:07:46;;;;;;;159.77;40.90;;;;;;;;;;5056117;28;20484;-85
2022/05/06 04:10:12;;;;;;;315.20;41.80;;;;;;;;;;5060556;28;20471;-84
2022/05/06 04:12:39;;;;;;;208.55;39.75;;;;;;;;;;5080560;28;20396;-85
2022/05/06 04:15:06;;;;;;;229.55;38.58;;;;;;;;;;5074941;28;20387;-86
2022/05/06 04:17:32;;;;;;;230.63;37.42;;;;;;;;;;5075878;28;20049;-86
2022/05/06 04:25:28;;;;;;;222.98;33.53;;;;;;;;;;5070215;28;20072;-86
2022/05/06 04:27:54;;;;;;;271.80;32.92;;;;;;;;;;5082509;28;20117;-86
2022/05/06 04:30:20;;;;;;;283.90;33.10;;;;;;;;;;5075819;28;20055;-86
2022/05/06 04:32:46;;;;;;;271.52;33.20;;;;;;;;;;5073710;28;20476;-86
2022/05/06 04:35:15;;;;;;;320.52;33.03;;;;;;;;;;5067790;28;20043;-86
2022/05/06 04:37:42;;;;;;;360.60;35.58;;;;;;;;;;5069204;28;20139;-86
2022/05/06 04:40:08;;;;;;;454.55;37.40;;;;;;;;;;5070795;28;20075;-86
2022/05/06 04:42:34;;;;;;;389.50;35.88;;;;;;;;;;5048846;28;20055;-86
2022/05/06 04:45:00;;;;;;;462.25;38.67;;;;;;;;;;5078239;28;20051;-87
2022/05/06 04:47:27;;;;;;;276.90;34.17;;;;;;;;;;5073073;28;20053;-87
2022/05/06 04:49:53;;;;;;;280.52;34.17;;;;;;;;;;5084878;28;20044;-86
2022/05/06 04:52:19;;;;;;;393.73;38.13;;;;;;;;;;5077063;28;20043;-87
2022/05/06 04:54:45;;;;;;;289.63;33.70;;;;;;;;;;5076902;28;20041;-87
2022/05/06 04:57:11;;;;;;;299.67;36.33;;;;;;;;;;5077117;28;20585;-86
2022/05/06 04:59:37;;;;;;;300.80;35.55;;;;;;;;;;5068721;28;20037;-86
2022/05/06 05:02:03;;;;;;;250.63;33.38;;;;;;;;;;5069892;28;20476;-87
2022/05/06 05:04:30;;;;;;;190.15;32.75;;;;;;;;;;5052065;28;20477;-86
2022/05/06 05:06:56;;;;;;;163.68;29.05;;;;;;;;;;5080962;28;20122;-87
2022/05/06 05:09:22;;;;;;;144.07;25.10;;;;;;;;;;5070050;28;20488;-87
2022/05/06 05:11:48;;;;;;;147.13;23.58;;;;;;;;;;5052678;28;20079;-88
2022/05/06 05:14:15;;;;;;;84.88;20.90;;;;;;;;;;5079751;28;20040;-88
2022/05/06 05:16:41;;;;;;;97.13;20.23;;;;;;;;;;5059189;28;20089;-88
2022/05/06 05:19:07;;;;;;;94.38;20.33;;;;;;;;;;5074678;28;20036;-87
2022/05/06 05:21:33;;;;;;;102.13;19.17;;;;;;;;;;5084104;28;20032;-88
2022/05/06 05:23:59;;;;;;;60.60;15.02;;;;;;;;;;5075795;28;20080;-87
2022/05/06 05:26:25;;;;;;;46.05;14.40;;;;;;;;;;5075821;28;20036;-87
2022/05/06 05:28:52;;;;;;;57.58;14.38;;;;;;;;;;5085650;28;20052;-87
2022/05/06 05:31:18;;;;;;;83.22;14.95;;;;;;;;;;5078302;28;20044;-88
2022/05/06 05:33:44;;;;;;;87.38;15.38;;;;;;;;;;5062027;28;20039;-87
2022/05/06 05:36:10;;;;;;;54.40;13.93;;;;;;;;;;5086214;28;20043;-87
2022/05/06 05:38:38;;;;;;;62.35;13.82;;;;;;;;;;5087883;28;20052;-87
2022/05/06 05:41:05;;;;;;;54.53;14.45;;;;;;;;;;5073129;28;20040;-87
2022/05/06 05:49:02;;;;;;;73.90;15.60;;;;;;;;;;5096989;28;20043;-87
2022/05/06 05:51:28;;;;;;;49.25;15.68;;;;;;;;;;5066560;28;20097;-87
2022/05/06 05:53:54;;;;;;;70.95;14.60;;;;;;;;;;5046330;28;20059;-86
2022/05/06 05:56:20;;;;;;;51.42;14.57;;;;;;;;;;5059237;28;20048;-87
2022/05/06 05:58:46;;;;;;;70.93;14.70;;;;;;;;;;5057167;28;20059;-87
2022/05/06 06:01:15;;;;;;;53.25;13.88;;;;;;;;;;5051714;28;20049;-88
2022/05/06 06:03:41;;;;;;;34.35;12.90;;;;;;;;;;5049651;28;20051;-87
2022/05/06 06:06:07;;;;;;;42.03;14.13;;;;;;;;;;5050361;28;20067;-86
2022/05/06 06:08:33;;;;;;;40.97;13.73;;;;;;;;;;5056712;28;20395;-87
2022/05/06 06:11:01;;;;;;;37.92;14.20;;;;;;;;;;5048339;28;20036;-86
2022/05/06 06:13:28;;;;;;;38.28;14.20;;;;;;;;;;5055956;28;20052;-86
2022/05/06 06:15:54;;;;;;;45.17;15.40;;;;;;;;;;5050603;28;20555;-86
2022/05/06 06:18:24;;;;;;;38.95;15.57;;;;;;;;;;5080018;28;20043;-86
2022/05/06 06:20:50;;;;;;;42.30;15.32;;;;;;;;;;5065976;28;20045;-86
2022/05/06 06:23:16;;;;;;;49.65;17.55;;;;;;;;;;5069489;28;20037;-86
2022/05/06 06:25:43;;;;;;;41.00;15.95;;;;;;;;;;5071602;28;20051;-85
2022/05/06 06:28:10;;;;;;;35.58;15.02;;;;;;;;;;5036572;28;20495;-85
2022/05/06 06:30:36;;;;;;;28.67;13.77;;;;;;;;;;5070875;28;20040;-85
2022/05/06 06:33:02;;;;;;;35.17;15.63;;;;;;;;;;5056884;28;20052;-85
2022/05/06 06:35:28;;;;;;;29.30;14.15;;;;;;;;;;5075026;28;20388;-84
2022/05/06 06:37:54;;;;;;;27.45;13.85;;;;;;;;;;5083408;28;20084;-84
2022/05/06 06:40:20;;;;;;;30.30;14.77;;;;;;;;;;5072362;28;20047;-84
2022/05/06 06:42:46;;;;;;;29.50;14.77;;;;;;;;;;5070243;28;20052;-84
2022/05/06 06:45:12;;;;;;;37.13;15.80;;;;;;;;;;5068520;28;20476;-84
2022/05/06 06:47:39;;;;;;;32.35;15.75;;;;;;;;;;5080119;28;20044;-85
2022/05/06 06:50:06;;;;;;;32.78;15.75;;;;;;;;;;5069632;28;20043;-84
2022/05/06 06:52:32;;;;;;;33.13;15.65;;;;;;;;;;5067568;28;20446;-84
2022/05/06 06:54:59;;;;;;;28.55;15.05;;;;;;;;;;5077480;28;20078;-84
2022/05/06 06:57:26;;;;;;;28.60;15.88;;;;;;;;;;5069311;28;20110;-84
2022/05/06 06:59:52;;;;;;;36.55;15.18;;;;;;;;;;5067944;28;20387;-84
2022/05/06 07:02:18;;;;;;;25.40;14.40;;;;;;;;;;5074275;28;20036;-84
2022/05/06 07:04:44;;;;;;;28.67;15.10;;;;;;;;;;5056256;28;20052;-84
2022/05/06 07:12:39;;;;;;;24.65;14.55;;;;;;;;;;5083078;28;20380;-83
2022/05/06 07:15:06;;;;;;;19.15;13.63;;;;;;;;;;5060202;28;20040;-83
2022/05/06 07:17:32;;;;;;;21.40;14.27;;;;;;;;;;5067739;28;20047;-83
2022/05/06 07:19:58;;;;;;;22.35;14.73;;;;;;;;;;5067256;28;20045;-83
2022/05/06 07:22:24;;;;;;;18.60;12.65;;;;;;;;;;5076379;28;20071;-83
2022/05/06 07:24:50;;;;;;;19.70;13.23;;;;;;;;;;5077393;28;20040;-82
2022/05/06 07:27:17;;;;;;;18.08;12.57;;;;;;;;;;5068415;28;20037;-82
2022/05/06 07:29:44;;;;;;;18.02;12.30;;;;;;;;;;5070059;28;20480;-83
2022/05/06 07:32:10;;;;;;;15.57;11.63;;;;;;;;;;5078158;28;20407;-82
2022/05/06 07:34:36;;;;;;;16.05;11.38;;;;;;;;;;5067462;28;20128;-82
2022/05/06 07:37:03;;;;;;;13.48;10.05;;;;;;;;;;5070143;28;20044;-82
2022/05/06 07:39:29;;;;;;;13.02;9.85;;;;;;;;;;5058170;28;20036;-82
2022/05/06 07:41:56;;;;;;;13.50;10.18;;;;;;;;;;5053455;28;20040;-82
2022/05/06 07:44:22;;;;;;;12.52;9.55;;;;;;;;;;5072474;28;20049;-83
2022/05/06 07:46:48;;;;;;;12.30;8.85;;;;;;;;;;5079446;28;20253;-82
2022/05/06 07:49:16;;;;;;;12.50;8.98;;;;;;;;;;5055420;28;20471;-83
2022/05/06 07:51:43;;;;;;;11.35;8.43;;;;;;;;;;5055416;28;20043;-83
2022/05/06 07:54:09;;;;;;;11.05;8.10;;;;;;;;;;5067478;28;20480;-82
2022/05/06 07:56:35;;;;;;;10.30;7.93;;;;;;;;;;5069714;28;20044;-82
2022/05/06 07:59:01;;;;;;;11.88;8.30;;;;;;;;;;5069466;28;20119;-83
2022/05/06 08:06:56;;;;;;;9.52;7.57;;;;;;;;;;5066789;28;20040;-83
2022/05/06 08:09:22;;;;;;;8.93;7.60;;;;;;;;;;5083210;28;20501;-83
2022/05/06 08:11:49;;;;;;;9.85;7.22;;;;;;;;;;5074840;28;20042;-83
2022/05/06 08:14:16;;;;;;;9.57;7.30;;;;;;;;;;5074632;28;20043;-83
2022/05/06 08:16:43;;;;;;;7.95;6.63;;;;;;;;;;5084251;28;20040;-82
2022/05/06 08:19:09;;;;;;;8.13;6.75;;;;;;;;;;5064989;28;20466;-83
2022/05/06 08:21:36;;;;;;;8.45;7.00;;;;;;;;;;5081342;28;20167;-82
2022/05/06 08:24:02;;;;;;;10.70;7.38;;;;;;;;;;5073907;28;20044;-83
2022/05/06 08:26:28;;;;;;;8.30;6.13;;;;;;;;;;5069380;28;20029;-83
2022/05/06 08:28:54;;;;;;;7.40;6.32;;;;;;;;;;5078844;28;20057;-83
2022/05/06 08:31:20;;;;;;;6.80;5.60;;;;;;;;;;5050914;28;20036;-83
2022/05/06 08:33:46;;;;;;;8.25;6.30;;;;;;;;;;5083388;28;21164;-83
2022/05/06 08:36:12;;;;;;;7.28;5.63;;;;;;;;;;5068204;28;20070;-83
2022/05/06 08:38:38;;;;;;;6.82;5.75;;;;;;;;;;5066245;28;20047;-83
2022/05/06 08:41:05;;;;;;;6.90;6.00;;;;;;;;;;5066329;28;20443;-83
2022/05/06 08:43:31;;;;;;;6.13;5.35;;;;;;;;;;5092146;28;20135;-82
2022/05/06 08:51:33;;;;;;;7.13;5.28;;;;;;;;;;5077975;28;20531;-83
2022/05/06 08:54:01;;;;;;;6.13;4.75;;;;;;;;;;5051047;28;20145;-83
2022/05/06 08:56:27;;;;;;;5.65;4.88;;;;;;;;;;5055752;28;20377;-83
2022/05/06 08:58:54;;;;;;;5.72;4.50;;;;;;;;;;5071604;28;20063;-83
2022/05/06 09:01:24;;;;;;;5.53;4.82;;;;;;;;;;5068520;28;20052;-83
2022/05/06 09:03:50;;;;;;;6.55;4.82;;;;;;;;;;5077436;28;20043;-82
2022/05/06 09:06:24;;;;;;;6.25;4.95;;;;;;;;;;5048419;28;21903;-83
2022/05/06 09:08:52;;;;;;;6.07;4.97;;;;;;;;;;5067960;28;20053;-82
2022/05/06 09:14:07;;;;;;;6.28;4.95;;;;;;;;;;5066303;28;20056;-83
2022/05/06 09:16:39;;;;;;;6.07;4.72;;;;;;;;;;5054090;28;20377;-83
2022/05/06 09:19:13;;;;;;;6.38;4.53;;;;;;;;;;5071110;28;20111;-83
2022/05/06 09:21:40;;;;;;;7.60;4.00;;;;;;;;;;5065932;28;20033;-83
2022/05/06 09:24:16;;;;;;;10.65;4.40;;;;;;;;;;5053563;28;20044;-84
2022/05/06 09:26:55;;;;;;;5.07;3.78;;;;;;;;;;5078934;28;20157;-84
2022/05/06 09:29:31;;;;;;;4.72;3.85;;;;;;;;;;5073726;28;20127;-84
2022/05/06 09:32:12;;;;;;;4.57;4.00;;;;;;;;;;5073346;28;20083;-84
2022/05/06 09:34:39;;;;;;;5.50;4.50;;;;;;;;;;5056149;28;20554;-84
2022/05/06 09:37:05;;;;;;;6.55;4.25;;;;;;;;;;5049605;28;20044;-84
2022/05/06 09:39:32;;;;;;;6.65;4.20;;;;;;;;;;5068526;28;20033;-83
2022/05/06 09:42:03;;;;;;;4.68;3.70;;;;;;;;;;5070189;28;20032;-84
2022/05/06 09:44:29;;;;;;;4.82;3.63;;;;;;;;;;5082873;28;20056;-84
2022/05/06 09:47:09;;;;;;;5.72;3.95;;;;;;;;;;5072578;28;20035;-84
2022/05/06 09:49:42;;;;;;;7.32;3.47;;;;;;;;;;5069106;28;20036;-84
2022/05/06 09:52:09;;;;;;;7.05;3.53;;;;;;;;;;5068231;28;20047;-84
2022/05/06 09:54:35;;;;;;;6.93;3.60;;;;;;;;;;5080895;28;20119;-84
2022/05/06 09:57:06;;;;;;;3.85;3.38;;;;;;;;;;5052953;28;20472;-84
2022/05/06 09:59:32;;;;;;;4.75;3.15;;;;;;;;;;5075951;28;20048;-84
2022/05/06 10:01:59;;;;;;;6.10;2.90;;;;;;;;;;5075483;28;20100;-84
2022/05/06 10:04:25;;;;;;;4.28;2.90;;;;;;;;;;5090049;28;20045;-84
2022/05/06 10:06:52;;;;;;;5.03;3.00;;;;;;;;;;5086947;28;20033;-84
2022/05/06 10:09:22;;;;;;;5.63;3.20;;;;;;;;;;5073973;28;20138;-85
2022/05/06 10:11:53;;;;;;;6.53;3.50;;;;;;;;;;5084642;28;20048;-85
2022/05/06 10:14:20;;;;;;;5.80;3.50;;;;;;;;;;5068548;28;20040;-85
2022/05/06 10:16:47;;;;;;;3.95;3.55;;;;;;;;;;5070417;28;20040;-85
2022/05/06 10:19:26;;;;;;;4.15;3.30;;;;;;;;;;5076503;28;20094;-85
2022/05/06 10:21:53;;;;;;;4.65;3.47;;;;;;;;;;5080247;28;20101;-85
2022/05/06 10:24:22;;;;;;;5.15;3.50;;;;;;;;;;5070291;28;20037;-85
2022/05/06 10:26:49;;;;;;;5.15;3.97;;;;;;;;;;5080714;28;20049;-85
2022/05/06 10:32:27;;;;;;;5.57;3.60;;;;;;;;;;5076477;28;20040;-85
2022/05/06 10:35:02;;;;;;;4.50;4.10;;;;;;;;;;5088472;28;20090;-85
2022/05/06 10:37:39;;;;;;;5.70;3.97;;;;;;;;;;5072135;28;20101;-82
2022/05/06 10:40:23;;;;;;;5.53;4.40;;;;;;;;;;5071765;28;20046;-84
2022/05/06 10:42:50;;;;;;;4.82;4.20;;;;;;;;;;5073446;28;20036;-84
2022/05/06 10:45:26;;;;;;;7.90;4.30;;;;;;;;;;5075200;28;20047;-86
2022/05/06 10:47:53;;;;;;;7.18;4.53;;;;;;;;;;5074120;28;20467;-83
2022/05/06 10:50:21;;;;;;;7.18;4.28;;;;;;;;;;5079357;28;20048;-82
2022/05/06 10:52:48;;;;;;;7.68;4.38;;;;;;;;;;5068869;28;20154;-82
2022/05/06 10:55:15;;;;;;;6.35;4.20;;;;;;;;;;5052487;28;20503;-82
2022/05/06 10:58:10;;;;;;;6.80;4.40;;;;;;;;;;5070270;28;20040;-83
2022/05/06 11:00:39;;;;;;;7.20;4.10;;;;;;;;;;5065639;28;20047;-82
2022/05/06 11:03:05;;;;;;;5.95;3.10;;;;;;;;;;5075839;28;20549;-81
2022/05/06 11:05:31;;;;;;;6.78;3.80;;;;;;;;;;5058844;28;20036;-81
2022/05/06 11:07:59;;;;;;;8.00;4.88;;;;;;;;;;5071655;28;20484;-81
2022/05/06 11:10:25;;;;;;;6.20;4.65;;;;;;;;;;5067646;28;20056;-81
2022/05/06 11:12:55;;;;;;;8.30;4.60;;;;;;;;;;5067924;28;20090;-81
2022/05/06 11:15:31;;;;;;;7.28;4.60;;;;;;;;;;5080656;28;20123;-82
2022/05/06 11:17:59;;;;;;;7.60;4.60;;;;;;;;;;5050899;28;20484;-81
2022/05/06 11:20:27;;;;;;;6.15;4.30;;;;;;;;;;5082922;28;20040;-81
2022/05/06 11:22:54;;;;;;;5.63;4.30;;;;;;;;;;5068378;28;20408;-81
2022/05/06 11:25:22;;;;;;;6.60;4.53;;;;;;;;;;5067504;28;20048;-81
2022/05/06 11:27:49;;;;;;;9.98;4.13;;;;;;;;;;5068419;28;20074;-82
2022/05/06 11:30:19;;;;;;;6.47;4.93;;;;;;;;;;5069487;28;20043;-81
2022/05/06 11:32:52;;;;;;;7.10;4.88;;;;;;;;;;5070246;28;20070;-81
2022/05/06 11:35:25;;;;;;;9.52;4.90;;;;;;;;;;5073875;28;20040;-81
2022/05/06 11:37:51;;;;;;;7.15;4.32;;;;;;;;;;5069250;28;20037;-81
2022/05/06 11:42:53;;;;;;;6.60;4.80;;;;;;;;;;5070856;28;20048;-81
2022/05/06 11:48:04;;;;;;;;;;;;;;;;;;5066701;28;20044;-81
2022/05/06 11:50:32;;;;;;;10.73;4.88;;;;;;;;;;5067229;28;19927;-82
2022/05/06 11:53:01;;;;;;;7.40;4.70;;;;;;;;;;5067191;28;20119;-81
2022/05/06 11:55:27;;;;;;;7.65;4.75;;;;;;;;;;5050126;28;20435;-81
2022/05/06 11:57:53;;;;;;;8.50;4.60;;;;;;;;;;5067058;28;20080;-79
2022/05/06 12:00:20;;;;;;;10.68;5.10;;;;;;;;;;5068165;28;20040;-79
2022/05/06 12:02:50;;;;;;;7.07;4.78;;;;;;;;;;5077830;28;20340;-79
2022/05/06 12:05:16;;;;;;;5.55;4.13;;;;;;;;;;5088246;28;20506;-79
2022/05/06 12:07:44;;;;;;;8.20;4.63;;;;;;;;;;5072210;28;20098;-79
2022/05/06 12:10:11;;;;;;;6.00;3.97;;;;;;;;;;5034440;28;20510;-80
2022/05/06 12:12:53;;;;;;;7.93;4.28;;;;;;;;;;5065718;28;20480;-79
2022/05/06 12:15:20;;;;;;;7.57;3.60;;;;;;;;;;5051154;28;20442;-79
2022/05/06 12:17:46;;;;;;;6.28;3.83;;;;;;;;;;5052967;28;20097;-79
2022/05/06 12:20:31;;;;;;;6.72;3.85;;;;;;;;;;5075086;28;20048;-79
2022/05/06 12:22:58;;;;;;;6.82;3.85;;;;;;;;;;5081208;28;20183;-79
2022/05/06 12:25:24;;;;;;;6.40;3.65;;;;;;;;;;5069047;28;20104;-79
2022/05/06 12:28:03;;;;;;;4.80;3.55;;;;;;;;;;5063344;28;20119;-79
2022/05/06 12:30:31;;;;;;;6.97;2.92;;;;;;;;;;5070275;28;20043;-79
2022/05/06 12:33:06;;;;;;;5.63;2.63;;;;;;;;;;5049214;28;20063;-79
2022/05/06 12:35:52;;;;;;;5.38;2.00;;;;;;;;;;5067698;28;20494;-79
2022/05/06 12:38:18;;;;;;;3.90;2.40;;;;;;;;;;5051889;28;20193;-79
2022/05/06 12:40:45;;;;;;;4.72;2.78;;;;;;;;;;5076917;28;20036;-79
2022/05/06 12:43:11;;;;;;;5.22;3.15;;;;;;;;;;5065894;28;20041;-79
2022/05/06 12:45:38;;;;;;;7.47;3.47;;;;;;;;;;5066521;28;20082;-79
2022/05/06 12:50:49;;;;;;;7.55;3.72;;;;;;;;;;5067751;28;20116;-79
2022/05/06 12:53:15;;;;;;;7.90;5.50;;;;;;;;;;5065944;28;20125;-79
2022/05/06 12:55:42;;;;;;;7.00;5.15;;;;;;;;;;5065328;28;20040;-81
2022/05/06 12:58:08;;;;;;;7.53;5.65;;;;;;;;;;5073219;28;20032;-80
2022/05/06 13:00:36;;;;;;;14.38;6.13;;;;;;;;;;5070328;28;20044;-80
2022/05/06 13:03:04;;;;;;;11.18;6.30;;;;;;;;;;5078533;28;20153;-81
2022/05/06 13:05:30;;;;;;;8.80;6.22;;;;;;;;;;5066846;28;20114;-80
2022/05/06 13:07:56;;;;;;;9.25;6.32;;;;;;;;;;5089884;28;20128;-81
2022/05/06 13:10:22;;;;;;;10.90;6.47;;;;;;;;;;5085497;28;20117;-80
2022/05/06 13:12:48;;;;;;;9.52;6.88;;;;;;;;;;5078634;28;20047;-80
2022/05/06 13:15:14;;;;;;;10.48;6.13;;;;;;;;;;5074593;28;20111;-80
2022/05/06 13:17:40;;;;;;;9.32;6.55;;;;;;;;;;5070794;28;20044;-81
2022/05/06 13:20:07;;;;;;;11.05;6.78;;;;;;;;;;5061454;28;20466;-80
2022/05/06 13:22:33;;;;;;;16.38;9.15;;;;;;;;;;5068627;28;20041;-82
2022/05/06 13:24:59;;;;;;;12.27;9.30;;;;;;;;;;5048194;28;20094;-83
2022/05/06 13:27:25;;;;;;;12.45;8.85;;;;;;;;;;5074859;28;20039;-82
2022/05/06 13:29:51;;;;;;;13.60;9.80;;;;;;;;;;5076504;28;20124;-83
2022/05/06 13:32:17;;;;;;;16.15;10.30;;;;;;;;;;5080927;28;20037;-83
2022/05/06 13:34:43;;;;;;;11.55;9.07;;;;;;;;;;5069108;28;20041;-82
2022/05/06 13:37:09;;;;;;;11.25;8.55;;;;;;;;;;5066357;28;20444;-82
2022/05/06 13:39:35;;;;;;;12.98;8.57;;;;;;;;;;5056795;28;20033;-83
2022/05/06 13:42:01;;;;;;;13.38;8.93;;;;;;;;;;5067880;28;20051;-82
2022/05/06 13:44:27;;;;;;;13.32;8.40;;;;;;;;;;5068393;28;20041;-82
2022/05/06 13:46:53;;;;;;;11.07;7.70;;;;;;;;;;5073817;28;20388;-82
2022/05/06 13:49:19;;;;;;;10.27;7.00;;;;;;;;;;5076248;28;20503;-83
2022/05/06 13:51:45;;;;;;;11.73;7.05;;;;;;;;;;5075582;28;20035;-82
2022/05/06 13:54:12;;;;;;;11.32;7.68;;;;;;;;;;5073927;28;20119;-82
2022/05/06 13:59:22;;;;;;;11.73;7.13;;;;;;;;;;5088902;28;20040;-83
2022/05/06 14:01:49;;;;;;;7.90;6.25;;;;;;;;;;5077294;28;20075;-82
2022/05/06 14:04:15;;;;;;;13.25;8.05;;;;;;;;;;5071237;28;20539;-83
2022/05/06 14:06:41;;;;;;;11.20;8.13;;;;;;;;;;5068202;28;20032;-82
2022/05/06 14:09:07;;;;;;;11.63;7.53;;;;;;;;;;5052689;28;20119;-83
2022/05/06 14:11:34;;;;;;;12.25;7.88;;;;;;;;;;5080965;28;20048;-83
2022/05/06 14:14:01;;;;;;;10.10;7.97;;;;;;;;;;5085781;28;21315;-83
2022/05/06 14:16:27;;;;;;;8.63;6.65;;;;;;;;;;5071928;28;20088;-83
2022/05/06 14:18:57;;;;;;;9.63;6.22;;;;;;;;;;5070855;28;20040;-82
2022/05/06 14:21:28;;;;;;;10.38;8.35;;;;;;;;;;5068371;28;20044;-83
2022/05/06 14:23:54;;;;;;;10.85;8.75;;;;;;;;;;5085849;28;20124;-84
2022/05/06 14:26:22;;;;;;;10.05;7.05;;;;;;;;;;5066678;28;20048;-83
2022/05/06 14:28:48;;;;;;;11.90;8.55;;;;;;;;;;5068794;28;20049;-83
2022/05/06 14:31:14;;;;;;;12.15;8.68;;;;;;;;;;5069682;28;20135;-84
2022/05/06 14:33:40;;;;;;;13.75;8.80;;;;;;;;;;5070591;28;20029;-83
2022/05/06 14:36:06;;;;;;;10.88;8.82;;;;;;;;;;5072257;28;20606;-83
2022/05/06 14:38:33;;;;;;;11.82;8.85;;;;;;;;;;5050365;28;21384;-82
2022/05/06 14:40:59;;;;;;;11.75;9.00;;;;;;;;;;5051036;28;20045;-83
2022/05/06 14:43:25;;;;;;;13.25;10.20;;;;;;;;;;5051054;28;20041;-83
2022/05/06 14:45:52;;;;;;;13.73;10.10;;;;;;;;;;5053153;28;20044;-83
2022/05/06 14:48:18;;;;;;;12.57;9.98;;;;;;;;;;5072246;28;20129;-84
2022/05/06 14:50:44;;;;;;;15.65;10.35;;;;;;;;;;5074273;28;20503;-83
2022/05/06 14:53:11;;;;;;;14.73;9.13;;;;;;;;;;5079545;28;20127;-84
2022/05/06 14:55:37;;;;;;;11.90;8.95;;;;;;;;;;5050946;28;20033;-83
2022/05/06 14:58:03;;;;;;;11.45;9.13;;;;;;;;;;5067933;28;20732;-83
2022/05/06 15:00:29;;;;;;;14.10;10.20;;;;;;;;;;5081271;28;20032;-84
2022/05/06 15:02:55;;;;;;;12.60;10.57;;;;;;;;;;5089771;28;20040;-83
2022/05/06 15:05:21;;;;;;;12.02;9.73;;;;;;;;;;5038126;28;20044;-83
2022/05/06 15:07:47;;;;;;;12.52;9.80;;;;;;;;;;5072888;28;20036;-83
2022/05/06 15:10:14;;;;;;;13.82;9.20;;;;;;;;;;5081034;28;20127;-83
2022/05/06 15:12:40;;;;;;;12.77;8.68;;;;;;;;;;5073878;28;20047;-84
2022/05/06 15:15:06;;;;;;;11.20;7.78;;;;;;;;;;5074170;28;20068;-84
2022/05/06 15:17:32;;;;;;;10.77;8.50;;;;;;;;;;5070549;28;20040;-83
2022/05/06 15:19:59;;;;;;;12.93;7.93;;;;;;;;;;5068242;28;20443;-83